Time;durP1;ratioP1;P1;durP2;ratioP2;P2;SDS_P1;SDS_P2;PMS_P1;PMS_P2;Temp;Humidity;BMP_temperature;BMP_pressure;BME280_temperature;BME280_humidity;BME280_pressure;Samples;Min_cycle;Max_cycle;Signal;HPM_P1;HPM_P2
2023/11/08 00:00:37;;;;;;;2.20;0.90;;;7.20;68.90;;;;;;5093128;28;20026;-77
2023/11/08 00:03:02;;;;;;;4.63;1.38;;;7.10;70.50;;;;;;5092948;28;20388;-76
2023/11/08 00:05:29;;;;;;;3.85;1.15;;;7.00;73.80;;;;;;5093004;28;20056;-76
2023/11/08 00:07:55;;;;;;;4.00;1.42;;;6.80;75.40;;;;;;5092746;28;20020;-76
2023/11/08 00:10:20;;;;;;;6.30;1.20;;;6.70;79.00;;;;;;5092911;28;20085;-76
2023/11/08 00:12:46;;;;;;;5.32;1.20;;;6.50;79.00;;;;;;5092812;28;20422;-76
2023/11/08 00:15:12;;;;;;;6.80;1.40;;;6.50;79.60;;;;;;5092548;28;20047;-76
2023/11/08 00:17:37;;;;;;;7.45;1.70;;;6.60;79.10;;;;;;5092595;28;20131;-75
2023/11/08 00:20:08;;;;;;;4.63;1.42;;;6.50;78.70;;;;;;5092462;28;20024;-77
2023/11/08 00:22:33;;;;;;;4.25;1.40;;;6.50;78.70;;;;;;5092708;28;20047;-76
2023/11/08 00:24:59;;;;;;;3.42;1.23;;;6.60;79.00;;;;;;5092571;28;20467;-77
2023/11/08 00:27:26;;;;;;;4.53;1.38;;;6.60;79.50;;;;;;5092396;28;20040;-76
2023/11/08 00:29:51;;;;;;;5.80;1.63;;;6.60;79.70;;;;;;5092512;28;20031;-76
2023/11/08 00:32:21;;;;;;;6.82;2.00;;;6.60;79.70;;;;;;5092462;28;20024;-76
2023/11/08 00:34:50;;;;;;;5.28;1.30;;;6.60;79.80;;;;;;5092443;28;20020;-76
2023/11/08 00:37:16;;;;;;;3.15;1.10;;;6.60;79.80;;;;;;5092310;28;20376;-76
2023/11/08 00:39:42;;;;;;;5.28;1.30;;;6.60;79.90;;;;;;5092276;28;20028;-76
2023/11/08 00:42:08;;;;;;;3.28;1.38;;;6.50;80.10;;;;;;5092324;28;20024;-76
2023/11/08 00:44:33;;;;;;;6.05;1.20;;;6.40;80.40;;;;;;5092195;28;20031;-76
2023/11/08 00:46:59;;;;;;;5.10;1.38;;;6.40;80.70;;;;;;5092180;28;20070;-75
2023/11/08 00:49:25;;;;;;;5.40;1.55;;;6.30;80.70;;;;;;5092111;28;20022;-76
2023/11/08 00:51:50;;;;;;;6.75;1.40;;;6.30;80.90;;;;;;5092131;28;20035;-76
2023/11/08 00:54:17;;;;;;;3.35;1.80;;;6.10;81.20;;;;;;5092081;28;20566;-75
2023/11/08 00:56:42;;;;;;;3.80;1.42;;;6.10;81.50;;;;;;5091024;28;20025;-75
2023/11/08 00:59:08;;;;;;;9.68;1.55;;;6.10;81.60;;;;;;5091900;28;20028;-74
2023/11/08 01:01:36;;;;;;;8.27;1.45;;;6.10;81.60;;;;;;5091920;28;20032;-75
2023/11/08 01:04:05;;;;;;;5.20;1.70;;;6.00;81.00;;;;;;5091767;28;20122;-76
2023/11/08 01:06:31;;;;;;;4.53;1.40;;;6.00;80.90;;;;;;5091953;28;20031;-76
2023/11/08 01:08:57;;;;;;;5.15;1.60;;;6.00;81.00;;;;;;5091919;28;20024;-77
2023/11/08 01:11:23;;;;;;;6.03;1.58;;;6.00;80.60;;;;;;5091900;28;20154;-76
2023/11/08 01:13:48;;;;;;;6.72;1.30;;;6.00;80.30;;;;;;5091356;28;20024;-76
2023/11/08 01:16:14;;;;;;;8.07;1.27;;;6.00;80.10;;;;;;5091838;28;20020;-76
2023/11/08 01:18:40;;;;;;;5.82;1.30;;;6.00;80.00;;;;;;5091698;28;20491;-76
2023/11/08 01:21:05;;;;;;;3.20;1.10;;;6.00;80.00;;;;;;5091845;28;20020;-76
2023/11/08 01:23:31;;;;;;;3.92;1.52;;;6.10;80.20;;;;;;5091734;28;20278;-76
2023/11/08 01:25:57;;;;;;;3.80;1.50;;;6.10;80.20;;;;;;5091463;28;20028;-76
2023/11/08 01:28:23;;;;;;;5.75;1.90;;;6.10;80.30;;;;;;5091560;28;20499;-76
2023/11/08 01:30:49;;;;;;;4.15;1.50;;;6.10;80.40;;;;;;5091723;28;20476;-77
2023/11/08 01:33:15;;;;;;;2.72;1.45;;;6.10;80.50;;;;;;5091575;28;20067;-76
2023/11/08 01:35:40;;;;;;;3.58;1.30;;;6.10;80.50;;;;;;5091733;28;20052;-76
2023/11/08 01:38:06;;;;;;;8.38;1.38;;;6.10;80.70;;;;;;5091673;28;20469;-77
2023/11/08 01:40:33;;;;;;;3.85;1.27;;;6.00;80.50;;;;;;5091678;28;20025;-75
2023/11/08 01:42:58;;;;;;;7.88;1.73;;;6.10;80.90;;;;;;5091728;28;20076;-75
2023/11/08 01:45:24;;;;;;;5.75;1.70;;;6.00;80.80;;;;;;5091065;28;20020;-75
2023/11/08 01:47:50;;;;;;;4.43;1.75;;;6.10;80.80;;;;;;5091819;28;20020;-76
2023/11/08 01:50:17;;;;;;;4.93;1.77;;;6.10;80.50;;;;;;5091548;28;20027;-75
2023/11/08 01:52:43;;;;;;;3.53;1.70;;;6.00;80.10;;;;;;5091573;28;20021;-75
2023/11/08 01:55:09;;;;;;;4.38;1.90;;;6.00;80.20;;;;;;5091291;28;20017;-76
2023/11/08 01:57:36;;;;;;;5.75;1.80;;;6.00;80.30;;;;;;5091524;28;20039;-75
2023/11/08 02:00:04;;;;;;;5.53;1.85;;;6.00;80.40;;;;;;5091490;28;20081;-76
2023/11/08 02:02:31;;;;;;;3.95;1.38;;;6.00;80.50;;;;;;5091365;28;20024;-77
2023/11/08 02:04:57;;;;;;;3.13;1.58;;;6.00;80.60;;;;;;5091437;28;20031;-77
2023/11/08 02:07:22;;;;;;;5.18;1.45;;;6.00;80.70;;;;;;5091354;28;20032;-77
2023/11/08 02:09:49;;;;;;;4.60;1.55;;;6.00;80.70;;;;;;5094844;28;20035;-76
2023/11/08 02:12:16;;;;;;;4.10;1.60;;;5.90;80.60;;;;;;5095282;28;20035;-77
2023/11/08 02:15:05;;;;;;;6.15;1.52;;;5.90;80.30;;;;;;5104117;28;20024;-76
2023/11/08 02:17:31;;;;;;;5.43;1.80;;;6.00;80.40;;;;;;5097276;28;20028;-76
2023/11/08 02:19:56;;;;;;;5.85;1.70;;;6.00;80.20;;;;;;5096135;28;20024;-75
2023/11/08 02:22:23;;;;;;;7.70;1.48;;;6.00;80.20;;;;;;5095058;28;20469;-76
2023/11/08 02:24:49;;;;;;;2.75;1.55;;;5.90;80.40;;;;;;5094969;28;20027;-76
2023/11/08 02:27:15;;;;;;;5.57;1.52;;;5.90;80.40;;;;;;5094750;28;20024;-76
2023/11/08 02:29:40;;;;;;;9.27;1.48;;;5.90;80.60;;;;;;5094830;28;20376;-76
2023/11/08 02:32:08;;;;;;;4.93;1.33;;;6.00;79.70;;;;;;5094666;28;20073;-76
2023/11/08 02:34:34;;;;;;;6.63;1.27;;;6.00;79.30;;;;;;5094623;28;20013;-76
2023/11/08 02:37:00;;;;;;;9.75;1.48;;;6.10;79.20;;;;;;5094677;28;20024;-76
2023/11/08 02:39:25;;;;;;;5.95;1.23;;;6.10;79.00;;;;;;5094658;28;20108;-76
2023/11/08 02:41:51;;;;;;;4.10;1.30;;;6.20;79.00;;;;;;5094607;28;20039;-76
2023/11/08 02:44:18;;;;;;;5.65;0.93;;;6.20;78.20;;;;;;5094594;28;20016;-75
2023/11/08 02:46:44;;;;;;;4.75;1.23;;;6.30;78.30;;;;;;5094518;28;20024;-76
2023/11/08 02:49:11;;;;;;;8.35;1.20;;;6.30;77.90;;;;;;5094380;28;20020;-76
2023/11/08 02:51:36;;;;;;;6.55;1.38;;;6.40;77.50;;;;;;5094453;28;20078;-77
2023/11/08 02:54:02;;;;;;;6.80;1.33;;;6.40;77.30;;;;;;5094366;28;20036;-76
2023/11/08 02:56:28;;;;;;;6.35;1.25;;;6.50;77.10;;;;;;5094304;28;20028;-76
2023/11/08 02:58:53;;;;;;;3.40;1.15;;;6.50;77.10;;;;;;5094218;28;20039;-77
2023/11/08 03:01:21;;;;;;;5.82;1.25;;;6.50;76.80;;;;;;5094215;28;20028;-76
2023/11/08 03:03:47;;;;;;;9.18;1.52;;;6.60;76.20;;;;;;5094113;28;20032;-76
2023/11/08 03:06:13;;;;;;;7.05;1.20;;;6.60;76.70;;;;;;5094167;28;20054;-77
2023/11/08 03:08:38;;;;;;;4.90;1.20;;;6.50;76.40;;;;;;5094065;28;20059;-77
2023/11/08 03:11:04;;;;;;;4.57;1.00;;;6.60;76.20;;;;;;5095254;28;20487;-77
2023/11/08 03:13:32;;;;;;;7.57;1.00;;;6.60;76.00;;;;;;5094011;28;20074;-77
2023/11/08 03:15:58;;;;;;;4.75;1.20;;;6.60;76.00;;;;;;5094038;28;20016;-76
2023/11/08 03:18:24;;;;;;;5.07;1.20;;;6.60;75.70;;;;;;5093791;28;20063;-76
2023/11/08 03:20:50;;;;;;;5.78;1.02;;;6.70;75.50;;;;;;5092919;28;20026;-77
2023/11/08 03:23:16;;;;;;;5.18;1.30;;;6.70;75.40;;;;;;5093793;28;20028;-76
2023/11/08 03:25:41;;;;;;;7.60;1.50;;;6.80;75.60;;;;;;5093786;28;20120;-76
2023/11/08 03:28:07;;;;;;;6.97;1.40;;;6.80;75.50;;;;;;5092453;28;20044;-76
2023/11/08 03:30:34;;;;;;;5.65;1.20;;;6.80;75.40;;;;;;5093106;28;20024;-76
2023/11/08 03:33:00;;;;;;;4.50;1.05;;;6.80;75.40;;;;;;5093470;28;20020;-76
2023/11/08 03:35:26;;;;;;;6.22;1.05;;;6.80;76.30;;;;;;5076369;28;20119;-76
2023/11/08 03:37:51;;;;;;;5.35;1.05;;;6.80;76.40;;;;;;5093379;28;20040;-77
2023/11/08 03:40:17;;;;;;;4.75;1.52;;;6.80;76.80;;;;;;5093386;28;20020;-75
2023/11/08 03:42:44;;;;;;;6.43;1.05;;;6.80;77.00;;;;;;5093293;28;20457;-74
2023/11/08 03:45:10;;;;;;;6.30;1.30;;;6.70;77.30;;;;;;5093055;28;20028;-74
2023/11/08 03:47:37;;;;;;;3.33;1.27;;;6.70;77.60;;;;;;5093225;28;20104;-75
2023/11/08 03:50:04;;;;;;;5.10;1.42;;;6.60;77.70;;;;;;5093233;28;20102;-73
2023/11/08 03:52:30;;;;;;;4.25;0.98;;;6.60;78.20;;;;;;5093228;28;20031;-75
2023/11/08 03:54:55;;;;;;;7.78;1.50;;;6.60;78.20;;;;;;5093273;28;20112;-77
2023/11/08 03:57:21;;;;;;;4.15;1.17;;;6.60;77.40;;;;;;5093077;28;20074;-77
2023/11/08 03:59:49;;;;;;;7.82;1.40;;;6.50;77.80;;;;;;5092886;28;20035;-77
2023/11/08 04:02:18;;;;;;;5.53;1.67;;;6.50;77.60;;;;;;5093089;28;20020;-76
2023/11/08 04:04:45;;;;;;;4.78;1.42;;;6.60;77.20;;;;;;5092983;28;20115;-77
2023/11/08 04:07:12;;;;;;;6.47;1.00;;;6.70;77.20;;;;;;5094288;28;20016;-76
2023/11/08 04:09:41;;;;;;;10.27;1.90;;;6.80;77.80;;;;;;5092849;28;20050;-77
2023/11/08 04:12:09;;;;;;;5.13;1.30;;;6.70;78.40;;;;;;5092806;28;20114;-77
2023/11/08 04:14:34;;;;;;;5.10;1.00;;;6.80;79.40;;;;;;5092765;28;20028;-76
2023/11/08 04:17:00;;;;;;;6.05;1.35;;;6.70;78.90;;;;;;5092058;28;20446;-77
2023/11/08 04:19:26;;;;;;;6.95;1.45;;;6.70;79.80;;;;;;5092647;28;20426;-75
2023/11/08 04:21:52;;;;;;;2.88;1.00;;;6.70;79.70;;;;;;5092687;28;20024;-76
2023/11/08 04:24:18;;;;;;;5.25;1.20;;;6.60;79.80;;;;;;5092625;28;20031;-77
2023/11/08 04:26:44;;;;;;;4.60;1.30;;;6.70;79.80;;;;;;5092322;28;20486;-76
2023/11/08 04:29:10;;;;;;;5.72;1.27;;;6.60;79.60;;;;;;5092033;28;20044;-76
2023/11/08 04:31:35;;;;;;;3.72;1.20;;;6.50;79.90;;;;;;5092219;28;20031;-76
2023/11/08 04:34:01;;;;;;;5.13;1.65;;;6.60;80.00;;;;;;5092437;28;20032;-76
2023/11/08 04:36:27;;;;;;;5.97;1.60;;;6.50;80.30;;;;;;5092007;28;20020;-76
2023/11/08 04:38:53;;;;;;;6.03;1.25;;;6.40;80.70;;;;;;5091932;28;20125;-76
2023/11/08 04:41:20;;;;;;;4.82;1.23;;;6.40;81.00;;;;;;5093718;28;20115;-76
2023/11/08 04:43:48;;;;;;;6.47;1.10;;;6.40;81.30;;;;;;5092021;28;20120;-77
2023/11/08 04:46:17;;;;;;;4.25;1.30;;;6.30;81.40;;;;;;5092350;28;20024;-76
2023/11/08 04:48:43;;;;;;;6.38;2.13;;;6.30;81.00;;;;;;5092141;28;20035;-77
2023/11/08 04:51:09;;;;;;;9.23;2.78;;;6.30;81.00;;;;;;5092206;28;20059;-76
2023/11/08 04:53:34;;;;;;;11.50;3.35;;;6.30;81.00;;;;;;5091953;28;20055;-77
2023/11/08 04:56:00;;;;;;;6.82;2.22;;;6.30;81.20;;;;;;5092200;28;20353;-76
2023/11/08 04:58:25;;;;;;;9.27;2.90;;;6.30;80.40;;;;;;5091883;28;20492;-76
2023/11/08 05:00:51;;;;;;;6.75;2.30;;;6.30;80.50;;;;;;5092012;28;20035;-76
2023/11/08 05:03:17;;;;;;;6.53;1.80;;;6.40;80.70;;;;;;5091913;28;20020;-77
2023/11/08 05:05:42;;;;;;;6.65;1.83;;;6.40;80.70;;;;;;5092082;28;20012;-77
2023/11/08 05:08:08;;;;;;;5.40;1.77;;;6.40;80.80;;;;;;5092015;28;20027;-76
2023/11/08 05:10:34;;;;;;;6.97;2.30;;;6.40;80.80;;;;;;5091831;28;20521;-76
2023/11/08 05:13:02;;;;;;;6.75;1.50;;;6.40;80.70;;;;;;5091785;28;20024;-76
2023/11/08 05:15:32;;;;;;;6.90;1.77;;;6.30;80.50;;;;;;5091827;28;20417;-76
2023/11/08 05:17:58;;;;;;;6.13;1.83;;;6.30;80.30;;;;;;5091539;28;20032;-74
2023/11/08 05:20:25;;;;;;;4.07;1.73;;;6.30;80.40;;;;;;5091880;28;20031;-75
2023/11/08 05:22:51;;;;;;;3.70;1.38;;;6.30;80.30;;;;;;5091794;28;20115;-75
2023/11/08 05:25:17;;;;;;;5.28;1.48;;;6.30;80.10;;;;;;5091685;28;20031;-74
2023/11/08 05:27:43;;;;;;;5.47;1.50;;;6.40;79.80;;;;;;5091593;28;20427;-75
2023/11/08 05:30:09;;;;;;;18.10;9.13;;;6.40;79.70;;;;;;5091808;28;20499;-76
2023/11/08 05:32:41;;;;;;;24.35;10.50;;;6.40;79.90;;;;;;5091740;28;20461;-76
2023/11/08 05:35:07;;;;;;;5.50;2.25;;;6.50;79.90;;;;;;5091826;28;20430;-76
2023/11/08 05:37:33;;;;;;;5.32;1.98;;;6.40;80.20;;;;;;5091611;28;20040;-75
2023/11/08 05:39:59;;;;;;;7.05;2.47;;;6.50;80.50;;;;;;5091558;28;20024;-75
2023/11/08 05:42:26;;;;;;;7.63;2.13;;;6.40;80.60;;;;;;5091412;28;20073;-75
2023/11/08 05:44:54;;;;;;;6.13;3.10;;;6.50;80.80;;;;;;5096781;28;20035;-75
2023/11/08 05:47:20;;;;;;;7.43;2.75;;;6.50;80.90;;;;;;5096163;28;20024;-75
2023/11/08 05:49:45;;;;;;;10.60;3.38;;;6.30;81.10;;;;;;5095753;28;20020;-75
2023/11/08 05:52:11;;;;;;;7.80;3.17;;;6.30;81.00;;;;;;5095570;28;20460;-77
2023/11/08 05:54:37;;;;;;;9.25;2.85;;;6.30;81.60;;;;;;5095601;28;20054;-75
2023/11/08 05:57:03;;;;;;;7.13;2.72;;;6.30;81.30;;;;;;5095608;28;20023;-76
2023/11/08 05:59:29;;;;;;;5.93;2.65;;;6.30;81.60;;;;;;5095488;28;20032;-76
2023/11/08 06:01:55;;;;;;;7.45;2.30;;;6.30;81.70;;;;;;5095474;28;20031;-75
2023/11/08 06:04:20;;;;;;;7.80;2.17;;;6.30;81.70;;;;;;5095292;28;20051;-77
2023/11/08 06:06:48;;;;;;;8.07;1.95;;;6.20;81.60;;;;;;5095405;28;20020;-76
2023/11/08 06:09:14;;;;;;;6.05;1.42;;;6.30;81.10;;;;;;5095481;28;20428;-76
2023/11/08 06:11:41;;;;;;;2.80;1.17;;;6.30;79.80;;;;;;5095350;28;20188;-76
2023/11/08 06:14:06;;;;;;;5.50;1.75;;;6.40;79.40;;;;;;5095256;28;20016;-76
2023/11/08 06:16:32;;;;;;;5.63;1.70;;;6.50;79.00;;;;;;5095418;28;20483;-75
2023/11/08 06:18:57;;;;;;;6.22;1.40;;;6.60;78.50;;;;;;5095094;28;20032;-75
2023/11/08 06:21:24;;;;;;;6.18;1.75;;;6.60;78.30;;;;;;5100072;28;20110;-75
2023/11/08 06:23:50;;;;;;;3.75;1.38;;;6.70;77.60;;;;;;5095355;28;20024;-74
2023/11/08 06:26:16;;;;;;;6.03;1.63;;;6.70;77.80;;;;;;5095144;28;20062;-75
2023/11/08 06:28:42;;;;;;;5.90;1.60;;;6.80;77.60;;;;;;5094726;28;20076;-76
2023/11/08 06:31:08;;;;;;;2.53;1.30;;;6.80;77.10;;;;;;5094417;28;20033;-76
2023/11/08 06:33:35;;;;;;;11.65;5.90;;;6.80;77.30;;;;;;5094437;28;20047;-76
2023/11/08 06:36:01;;;;;;;3.20;1.23;;;6.80;77.50;;;;;;5098830;28;20073;-74
2023/11/08 06:38:27;;;;;;;2.45;1.10;;;6.80;76.90;;;;;;5095935;28;20032;-75
2023/11/08 06:40:53;;;;;;;8.35;1.52;;;6.90;77.00;;;;;;5095003;28;20027;-76
2023/11/08 06:43:19;;;;;;;5.28;1.52;;;6.90;76.90;;;;;;5094537;28;20085;-76
2023/11/08 06:45:45;;;;;;;4.20;1.23;;;6.80;77.80;;;;;;5094563;28;20107;-76
2023/11/08 06:48:12;;;;;;;4.57;1.50;;;6.80;77.20;;;;;;5094426;28;20028;-76
2023/11/08 06:50:37;;;;;;;8.68;1.73;;;6.80;76.80;;;;;;5094516;28;20031;-77
2023/11/08 06:53:03;;;;;;;5.15;1.38;;;6.80;76.80;;;;;;5094449;28;20020;-76
2023/11/08 06:55:33;;;;;;;5.25;1.58;;;6.90;76.90;;;;;;5094312;28;20016;-78
2023/11/08 06:58:02;;;;;;;10.00;1.73;;;6.80;77.20;;;;;;5094221;28;20043;-77
2023/11/08 07:00:28;;;;;;;3.15;0.98;;;6.80;77.40;;;;;;5094414;28;20468;-77
2023/11/08 07:02:54;;;;;;;3.78;1.38;;;6.90;77.30;;;;;;5094087;28;20024;-77
2023/11/08 07:05:20;;;;;;;5.72;1.80;;;6.90;77.60;;;;;;5094285;28;20017;-78
2023/11/08 07:07:46;;;;;;;4.43;1.20;;;6.90;77.60;;;;;;5094136;28;20035;-77
2023/11/08 07:10:11;;;;;;;4.38;1.60;;;6.90;78.00;;;;;;5093926;28;20405;-78
2023/11/08 07:12:38;;;;;;;3.88;1.33;;;7.00;77.40;;;;;;5093681;28;20476;-78
2023/11/08 07:15:04;;;;;;;3.78;1.23;;;7.00;77.60;;;;;;5094068;28;20020;-77
2023/11/08 07:17:31;;;;;;;4.57;1.35;;;7.10;76.80;;;;;;5093536;28;20039;-79
2023/11/08 07:19:57;;;;;;;4.93;1.40;;;7.10;77.90;;;;;;5093692;28;20032;-78
2023/11/08 07:22:24;;;;;;;4.28;1.50;;;7.10;77.40;;;;;;5093748;28;20050;-79
2023/11/08 07:24:49;;;;;;;3.15;1.50;;;7.20;77.10;;;;;;5093851;28;20051;-78
2023/11/08 07:27:15;;;;;;;2.17;1.17;;;7.20;76.80;;;;;;5093653;28;20089;-78
2023/11/08 07:29:41;;;;;;;7.20;1.65;;;7.30;77.10;;;;;;5093681;28;20101;-77
2023/11/08 07:32:09;;;;;;;9.40;1.75;;;7.30;76.20;;;;;;5093654;28;20056;-77
2023/11/08 07:34:34;;;;;;;4.78;1.38;;;7.40;76.60;;;;;;5093790;28;20082;-76
2023/11/08 07:37:00;;;;;;;4.80;1.50;;;7.40;76.60;;;;;;5093697;28;20024;-76
2023/11/08 07:39:26;;;;;;;4.80;1.85;;;7.50;77.00;;;;;;5094233;28;20534;-76
2023/11/08 07:41:51;;;;;;;4.25;1.35;;;7.50;76.80;;;;;;5093335;28;20114;-74
2023/11/08 07:44:17;;;;;;;3.92;1.38;;;7.60;76.50;;;;;;5093362;28;20032;-76
2023/11/08 07:46:43;;;;;;;4.80;1.00;;;7.70;76.80;;;;;;5093454;28;20031;-75
2023/11/08 07:49:08;;;;;;;2.80;1.38;;;7.60;75.70;;;;;;5093097;28;20055;-77
2023/11/08 07:51:34;;;;;;;4.47;1.05;;;7.50;76.50;;;;;;5093164;28;20032;-76
2023/11/08 07:54:00;;;;;;;2.63;1.10;;;7.50;77.20;;;;;;5093193;28;20107;-75
2023/11/08 07:56:25;;;;;;;3.50;1.20;;;7.50;78.10;;;;;;5093377;28;20020;-75
2023/11/08 07:58:52;;;;;;;1.30;1.05;;;7.50;77.90;;;;;;5093501;28;20111;-75
2023/11/08 08:01:18;;;;;;;2.15;1.10;;;7.60;77.90;;;;;;5098896;28;20114;-76
2023/11/08 08:03:45;;;;;;;3.45;1.23;;;7.60;77.30;;;;;;5092583;28;20065;-76
2023/11/08 08:06:11;;;;;;;4.18;1.30;;;7.70;78.60;;;;;;5092326;28;20070;-77
2023/11/08 08:08:36;;;;;;;5.55;1.42;;;7.80;77.40;;;;;;5093829;28;20032;-76
2023/11/08 08:11:03;;;;;;;3.20;1.30;;;7.90;76.70;;;;;;5092602;28;20109;-78
2023/11/08 08:13:30;;;;;;;12.10;2.28;;;7.90;75.70;;;;;;5094387;28;20474;-80
2023/11/08 08:15:57;;;;;;;16.58;7.68;;;8.20;83.00;;;;;;5076145;28;20374;-83
2023/11/08 08:18:23;;;;;;;2.40;1.00;;;8.30;76.70;;;;;;5076100;28;20135;-79
2023/11/08 08:20:49;;;;;;;1.88;0.70;;;8.50;74.30;;;;;;5092664;28;20444;-76
2023/11/08 08:23:15;;;;;;;1.25;0.80;;;8.30;74.20;;;;;;5093931;28;20374;-76
2023/11/08 08:25:43;;;;;;;4.28;1.20;;;8.30;73.60;;;;;;5095246;28;20054;-78
2023/11/08 08:28:09;;;;;;;2.67;0.70;;;8.20;75.20;;;;;;5094859;28;20051;-77
2023/11/08 08:30:36;;;;;;;1.85;0.60;;;8.20;75.30;;;;;;5075936;28;20082;-81
2023/11/08 08:33:05;;;;;;;2.20;0.85;;;8.30;74.70;;;;;;5076081;28;20089;-82
2023/11/08 08:35:32;;;;;;;3.17;0.70;;;8.20;74.00;;;;;;5092713;28;20081;-79
2023/11/08 08:37:58;;;;;;;2.75;0.75;;;8.10;75.20;;;;;;5092291;28;20598;-75
2023/11/08 08:40:25;;;;;;;2.80;0.98;;;8.10;74.10;;;;;;5092233;28;20038;-75
2023/11/08 08:42:50;;;;;;;1.85;0.70;;;8.20;73.90;;;;;;5092286;28;20024;-76
2023/11/08 08:45:16;;;;;;;2.90;1.45;;;8.30;75.40;;;;;;5092162;28;20051;-76
2023/11/08 08:47:42;;;;;;;1.52;0.70;;;8.30;72.50;;;;;;5092070;28;20028;-76
2023/11/08 08:50:12;;;;;;;3.28;0.95;;;8.30;73.50;;;;;;5092181;28;20032;-78
2023/11/08 08:52:41;;;;;;;2.38;0.63;;;8.40;73.50;;;;;;5092275;28;20065;-75
2023/11/08 08:55:09;;;;;;;2.00;0.75;;;8.70;71.60;;;;;;5092254;28;20028;-78
2023/11/08 08:57:36;;;;;;;3.30;0.70;;;8.80;70.00;;;;;;5091425;28;20036;-75
2023/11/08 09:00:02;;;;;;;2.90;0.88;;;8.80;68.90;;;;;;5091992;28;20123;-75
2023/11/08 09:02:28;;;;;;;1.85;0.82;;;8.80;70.30;;;;;;5091872;28;20044;-75
2023/11/08 09:04:53;;;;;;;1.70;0.60;;;8.70;70.50;;;;;;5092003;28;20067;-76
2023/11/08 09:07:19;;;;;;;3.95;0.75;;;8.60;72.20;;;;;;5091921;28;20074;-75
2023/11/08 09:09:45;;;;;;;1.88;0.68;;;8.60;70.20;;;;;;5091993;28;20035;-73
2023/11/08 09:12:11;;;;;;;1.45;0.55;;;8.40;69.90;;;;;;5092059;28;20502;-75
2023/11/08 09:14:37;;;;;;;4.32;0.80;;;8.40;71.00;;;;;;5091935;28;20024;-75
2023/11/08 09:17:04;;;;;;;2.50;0.98;;;8.40;70.70;;;;;;5091386;28;20066;-74
2023/11/08 09:19:30;;;;;;;2.85;0.95;;;8.30;70.10;;;;;;5091530;28;20131;-75
2023/11/08 09:21:55;;;;;;;2.42;0.85;;;8.30;70.70;;;;;;5097337;28;20032;-75
2023/11/08 09:24:21;;;;;;;2.50;0.90;;;8.30;69.40;;;;;;5092005;28;20115;-75
2023/11/08 09:26:47;;;;;;;9.07;1.10;;;8.30;69.90;;;;;;5091757;28;20098;-74
2023/11/08 09:29:13;;;;;;;3.70;0.90;;;8.40;69.80;;;;;;5091560;28;20147;-74
2023/11/08 09:31:39;;;;;;;2.10;0.73;;;8.30;70.60;;;;;;5091758;28;20161;-74
2023/11/08 09:34:07;;;;;;;1.90;0.90;;;8.40;70.20;;;;;;5091589;28;20032;-75
2023/11/08 09:36:36;;;;;;;2.80;1.00;;;8.40;69.70;;;;;;5091730;28;20119;-73
2023/11/08 09:39:02;;;;;;;2.30;0.80;;;8.40;71.00;;;;;;5091653;28;20036;-75
2023/11/08 09:41:29;;;;;;;2.95;0.75;;;8.40;70.00;;;;;;5092674;28;20080;-74
2023/11/08 09:43:56;;;;;;;2.38;0.80;;;8.40;70.30;;;;;;5091554;28;20024;-74
2023/11/08 09:46:22;;;;;;;4.00;1.08;;;8.50;70.60;;;;;;5091553;28;20052;-75
2023/11/08 09:48:54;;;;;;;3.53;0.90;;;8.70;70.70;;;;;;5091569;28;20031;-74
2023/11/08 09:51:19;;;;;;;3.47;0.82;;;8.80;69.40;;;;;;5091493;28;20395;-75
2023/11/08 09:53:46;;;;;;;2.25;0.80;;;8.80;68.90;;;;;;5091610;28;20027;-74
2023/11/08 09:56:13;;;;;;;3.58;1.00;;;8.80;68.10;;;;;;5091325;28;20024;-74
2023/11/08 09:58:45;;;;;;;3.20;0.80;;;8.90;68.20;;;;;;5091185;28;20066;-74
2023/11/08 10:01:16;;;;;;;3.47;1.10;;;9.10;67.40;;;;;;5091382;28;20120;-75
2023/11/08 10:03:45;;;;;;;3.53;0.98;;;9.40;68.10;;;;;;5091457;28;20031;-76
2023/11/08 10:06:12;;;;;;;2.50;1.05;;;9.40;66.30;;;;;;5091474;28;20021;-75
2023/11/08 10:08:38;;;;;;;2.60;1.00;;;9.40;65.50;;;;;;5091355;28;20078;-75
2023/11/08 10:11:10;;;;;;;3.35;0.93;;;9.50;66.00;;;;;;5090832;28;20028;-76
2023/11/08 10:13:51;;;;;;;2.30;0.80;;;9.60;66.30;;;;;;5091363;28;20024;-75
2023/11/08 10:16:17;;;;;;;2.53;0.88;;;9.90;65.70;;;;;;5092132;28;20012;-76
2023/11/08 10:18:53;;;;;;;1.77;1.02;;;10.00;65.00;;;;;;5091084;28;20040;-76
2023/11/08 10:21:18;;;;;;;2.22;0.80;;;10.30;64.20;;;;;;5090946;28;20070;-76
2023/11/08 10:23:44;;;;;;;2.90;0.88;;;10.70;61.70;;;;;;5091214;28;20032;-75
2023/11/08 10:26:31;;;;;;;2.28;1.10;;;11.10;61.10;;;;;;5092274;28;20024;-75
2023/11/08 10:29:02;;;;;;;2.67;0.63;;;11.20;59.30;;;;;;5091601;28;20542;-76
2023/11/08 10:31:41;;;;;;;1.08;0.40;;;11.40;59.00;;;;;;5094762;28;20028;-76
2023/11/08 10:34:08;;;;;;;6.22;0.65;;;11.00;57.50;;;;;;5101027;28;20052;-76
2023/11/08 10:36:34;;;;;;;2.17;0.70;;;10.90;57.80;;;;;;5094553;28;20519;-75
2023/11/08 10:39:01;;;;;;;1.20;0.40;;;10.80;59.20;;;;;;5095150;28;20040;-75
2023/11/08 10:41:29;;;;;;;4.07;0.80;;;10.60;59.10;;;;;;5094809;28;20020;-75
2023/11/08 10:44:06;;;;;;;2.55;0.73;;;10.90;58.60;;;;;;5095793;28;20020;-75
2023/11/08 10:46:32;;;;;;;1.95;0.63;;;10.90;58.30;;;;;;5099392;28;20039;-75
2023/11/08 10:49:00;;;;;;;1.33;0.50;;;10.70;58.70;;;;;;5094379;28;20063;-76
2023/11/08 10:51:26;;;;;;;1.35;0.73;;;10.70;59.90;;;;;;5094707;28;20016;-75
2023/11/08 10:53:53;;;;;;;2.33;0.50;;;10.80;58.60;;;;;;5094425;28;20063;-76
2023/11/08 10:56:22;;;;;;;3.72;1.00;;;10.70;59.40;;;;;;5094244;28;20023;-76
2023/11/08 10:58:49;;;;;;;1.77;0.60;;;10.70;57.60;;;;;;5094380;28;20046;-75
2023/11/08 11:01:19;;;;;;;3.78;0.85;;;10.70;58.80;;;;;;5095386;28;20043;-77
2023/11/08 11:03:50;;;;;;;2.22;1.40;;;10.80;57.70;;;;;;5093941;28;20020;-77
2023/11/08 11:06:16;;;;;;;1.17;0.80;;;11.00;57.60;;;;;;5093755;28;20024;-77
2023/11/08 11:08:45;;;;;;;4.60;0.93;;;11.20;56.60;;;;;;5093793;28;20500;-77
2023/11/08 11:11:11;;;;;;;2.35;0.80;;;11.10;56.20;;;;;;5093602;28;20062;-77
2023/11/08 11:13:51;;;;;;;2.20;0.80;;;10.90;57.10;;;;;;5093851;28;20119;-77
2023/11/08 11:16:25;;;;;;;2.25;0.73;;;11.30;57.10;;;;;;5094153;28;20369;-77
2023/11/08 11:19:08;;;;;;;2.45;0.90;;;11.80;54.80;;;;;;5094151;28;20048;-77
2023/11/08 11:21:45;;;;;;;1.98;0.77;;;12.40;53.40;;;;;;5094800;28;20114;-77
2023/11/08 11:24:32;;;;;;;3.83;1.10;;;12.80;51.70;;;;;;5094203;28;20133;-77
2023/11/08 11:27:00;;;;;;;2.10;0.70;;;12.90;50.90;;;;;;5093595;28;20038;-76
2023/11/08 11:29:29;;;;;;;2.42;1.00;;;12.80;51.20;;;;;;5094761;28;20044;-79
2023/11/08 11:31:55;;;;;;;2.50;0.80;;;12.60;52.40;;;;;;5093433;28;20032;-76
2023/11/08 11:34:21;;;;;;;2.78;1.13;;;12.10;52.70;;;;;;5093755;28;20024;-76
2023/11/08 11:37:18;;;;;;;3.17;1.38;;;11.50;56.40;;;;;;5093385;28;20035;-76
2023/11/08 11:40:08;;;;;;;2.60;1.50;;;11.40;56.50;;;;;;5093465;28;20061;-76
2023/11/08 11:42:34;;;;;;;4.68;1.40;;;11.30;57.40;;;;;;5081376;28;20043;-77
2023/11/08 11:45:04;;;;;;;1.75;0.82;;;11.00;58.20;;;;;;5094385;28;20114;-77
2023/11/08 11:47:30;;;;;;;2.95;0.80;;;10.80;58.60;;;;;;5092901;28;20079;-76
2023/11/08 11:50:02;;;;;;;2.92;0.90;;;10.60;58.10;;;;;;5094413;28;20024;-75
2023/11/08 11:52:30;;;;;;;3.72;1.02;;;10.60;58.90;;;;;;5093499;28;20027;-75
2023/11/08 11:54:58;;;;;;;4.53;1.30;;;10.70;59.40;;;;;;5092604;28;20027;-76
2023/11/08 11:57:29;;;;;;;3.38;1.00;;;11.00;57.60;;;;;;5092558;28;20059;-76
2023/11/08 11:59:58;;;;;;;3.08;0.82;;;11.10;58.30;;;;;;5094092;28;20039;-75
2023/11/08 12:02:25;;;;;;;3.42;1.48;;;11.30;57.70;;;;;;5092906;28;20024;-77
2023/11/08 12:04:51;;;;;;;2.67;0.80;;;11.50;56.00;;;;;;5092881;28;20030;-76
2023/11/08 12:07:17;;;;;;;3.05;1.08;;;11.50;55.90;;;;;;5093377;28;20115;-76
2023/11/08 12:09:45;;;;;;;2.50;0.77;;;11.30;56.30;;;;;;5096611;28;20043;-77
2023/11/08 12:12:11;;;;;;;4.45;0.98;;;11.40;55.90;;;;;;5092632;28;20028;-75
2023/11/08 12:14:47;;;;;;;1.60;0.80;;;11.60;55.50;;;;;;5092779;28;20020;-75
2023/11/08 12:17:13;;;;;;;1.95;0.95;;;12.10;54.10;;;;;;5092567;28;20114;-77
2023/11/08 12:19:39;;;;;;;2.90;1.00;;;12.70;50.90;;;;;;5091119;28;20043;-76
2023/11/08 12:22:05;;;;;;;3.80;0.90;;;12.50;51.10;;;;;;5092340;28;20020;-76
2023/11/08 12:24:37;;;;;;;3.25;2.38;;;12.60;50.40;;;;;;5092727;28;20024;-77
2023/11/08 12:27:05;;;;;;;3.67;1.88;;;13.00;50.10;;;;;;5092683;28;20031;-79
2023/11/08 12:29:31;;;;;;;3.30;0.98;;;13.00;49.50;;;;;;5092678;28;20109;-78
2023/11/08 12:31:58;;;;;;;4.10;0.88;;;12.80;50.20;;;;;;5092675;28;20078;-76
2023/11/08 12:34:27;;;;;;;2.30;0.88;;;12.90;50.10;;;;;;5092403;28;20031;-76
2023/11/08 12:36:54;;;;;;;1.25;0.60;;;13.40;48.70;;;;;;5092175;28;20028;-76
2023/11/08 12:39:22;;;;;;;1.65;0.73;;;13.60;48.20;;;;;;5092383;28;20043;-77
2023/11/08 12:41:49;;;;;;;1.52;0.65;;;14.60;44.70;;;;;;5092552;28;20020;-77
2023/11/08 12:44:17;;;;;;;2.42;0.70;;;14.80;43.40;;;;;;5092748;28;20028;-77
2023/11/08 12:47:06;;;;;;;1.67;0.70;;;14.20;45.80;;;;;;5092288;28;20024;-76
2023/11/08 12:49:32;;;;;;;1.30;0.60;;;14.00;45.90;;;;;;5092504;28;20034;-75
2023/11/08 12:52:03;;;;;;;3.80;0.85;;;14.70;43.00;;;;;;5092391;28;20020;-75
2023/11/08 12:54:29;;;;;;;0.98;0.50;;;15.20;42.60;;;;;;5091730;28;20379;-76